createdAt,value
2022-09-25T00:02:09.809Z,25.60
2022-09-25T00:07:12.719Z,23.10
2022-09-25T00:12:15.632Z,25.30
2022-09-25T00:17:18.472Z,25.50
2022-09-25T00:22:24.953Z,25.80
2022-09-25T00:27:27.852Z,29.10
2022-09-25T00:32:31.042Z,28.80
2022-09-25T00:37:35.572Z,25.40
2022-09-25T00:42:38.514Z,27.30
2022-09-25T00:48:10.761Z,27.00
2022-09-25T00:53:38.464Z,26.50
2022-09-25T00:58:42.312Z,26.00
2022-09-25T01:03:46.470Z,27.10
2022-09-25T01:08:50.042Z,26.10
2022-09-25T01:13:55.660Z,26.20
2022-09-25T01:19:14.150Z,25.30
2022-09-25T01:24:25.570Z,28.00
2022-09-25T01:29:36.967Z,25.10
2022-09-25T01:34:56.758Z,26.50
2022-09-25T01:40:33.529Z,25.10
2022-09-25T01:45:59.693Z,26.20
2022-09-25T01:51:08.415Z,25.30
2022-09-25T01:56:20.523Z,29.20
2022-09-25T02:01:29.361Z,27.30
2022-09-25T02:06:33.347Z,27.80
2022-09-25T02:11:42.924Z,24.50
2022-09-25T02:16:50.271Z,23.80
2022-09-25T02:22:05.512Z,25.90
2022-09-25T02:27:08.348Z,31.50
2022-09-25T02:32:17.417Z,27.90
2022-09-25T02:37:20.364Z,28.50
2022-09-25T02:42:55.487Z,26.00
2022-09-25T02:48:32.481Z,23.90
2022-09-25T02:53:41.987Z,28.90
2022-09-25T02:58:51.107Z,26.40
2022-09-25T03:03:57.569Z,26.00
2022-09-25T03:09:02.667Z,24.10
2022-09-25T03:14:06.105Z,29.40
2022-09-25T03:19:09.084Z,26.60
2022-09-25T03:24:12.185Z,30.00
2022-09-25T03:29:17.456Z,27.30
2022-09-25T03:34:21.601Z,27.80
2022-09-25T03:39:24.493Z,28.60
2022-09-25T03:44:27.335Z,29.70
2022-09-25T03:49:30.130Z,26.90
2022-09-25T03:54:32.935Z,25.20
2022-09-25T03:59:35.877Z,31.00
2022-09-25T04:04:39.008Z,28.30
2022-09-25T04:09:41.888Z,26.50
2022-09-25T04:14:46.071Z,31.40
2022-09-25T04:19:49.382Z,24.20
2022-09-25T04:24:52.530Z,27.90
2022-09-25T04:29:55.547Z,25.30
2022-09-25T04:34:58.641Z,24.80
2022-09-25T04:40:01.887Z,25.10
2022-09-25T04:45:05.028Z,25.80
2022-09-25T04:50:08.386Z,24.20
2022-09-25T04:55:11.404Z,25.00
2022-09-25T05:00:18.775Z,24.30
2022-09-25T05:05:21.844Z,23.20
2022-09-25T05:10:27.850Z,23.00
2022-09-25T05:15:33.230Z,28.00
2022-09-25T05:20:36.350Z,25.00
2022-09-25T05:25:39.257Z,25.50
2022-09-25T05:30:43.774Z,28.90
2022-09-25T05:35:46.976Z,23.10
2022-09-25T05:40:50.295Z,26.00
2022-09-25T05:45:54.994Z,21.10
2022-09-25T05:50:58.689Z,20.80
2022-09-25T05:56:03.774Z,25.70
2022-09-25T06:01:07.177Z,26.70
2022-09-25T06:06:10.441Z,23.90
2022-09-25T06:11:13.338Z,21.90
2022-09-25T06:16:19.662Z,28.30
2022-09-25T06:21:22.707Z,26.60
2022-09-25T06:26:26.158Z,31.40
2022-09-25T06:31:29.113Z,25.00
2022-09-25T06:36:33.278Z,26.30
2022-09-25T06:41:36.824Z,25.00
2022-09-25T06:46:39.775Z,27.20
2022-09-25T06:51:42.787Z,27.40
2022-09-25T06:56:49.969Z,27.30
2022-09-25T07:01:53.068Z,21.70
2022-09-25T07:06:58.613Z,33.60
2022-09-25T07:12:01.829Z,25.90
2022-09-25T07:17:04.753Z,24.10
2022-09-25T07:22:07.649Z,26.40
2022-09-25T07:27:10.510Z,25.20
2022-09-25T07:32:13.322Z,25.80
2022-09-25T07:37:17.029Z,29.30
2022-09-25T07:42:19.914Z,24.30
2022-09-25T07:47:22.791Z,24.90
2022-09-25T07:52:25.727Z,26.40
2022-09-25T07:57:28.628Z,22.10
2022-09-25T08:02:32.002Z,27.70
2022-09-25T08:07:34.934Z,21.90
2022-09-25T08:12:37.809Z,21.50
2022-09-25T08:17:41.411Z,21.90
2022-09-25T08:22:44.233Z,19.30
2022-09-25T08:27:47.187Z,17.20
2022-09-25T08:32:50.536Z,12.70
2022-09-25T08:37:53.890Z,10.50
2022-09-25T08:42:57.597Z,15.40
2022-09-25T08:48:19.761Z,12.00
2022-09-25T08:53:26.378Z,15.40
2022-09-25T08:58:32.200Z,16.80
2022-09-25T09:03:46.272Z,17.90
2022-09-25T09:09:14.397Z,15.90
2022-09-25T09:14:20.680Z,15.10
2022-09-25T09:19:23.678Z,16.10
2022-09-25T09:24:53.866Z,14.20
2022-09-25T09:30:23.982Z,15.80
2022-09-25T09:35:52.441Z,20.10
2022-09-25T09:41:31.087Z,17.80
2022-09-25T09:46:57.461Z,16.00
2022-09-25T09:52:11.369Z,12.10
2022-09-25T09:57:26.664Z,13.20
2022-09-25T10:02:51.294Z,14.80
2022-09-25T10:07:54.496Z,16.00
2022-09-25T10:13:04.069Z,14.00
2022-09-25T10:18:09.462Z,13.00
2022-09-25T10:23:33.751Z,12.80
2022-09-25T10:28:36.925Z,14.60
2022-09-25T10:33:39.859Z,12.30
2022-09-25T10:38:53.446Z,12.30
2022-09-25T10:44:02.545Z,11.10
2022-09-25T10:54:43.654Z,9.10
2022-09-25T10:59:52.228Z,10.30
2022-09-25T11:04:57.171Z,12.90
2022-09-25T11:10:00.617Z,11.10
2022-09-25T11:15:08.977Z,10.60
2022-09-25T11:20:30.233Z,12.60
2022-09-25T11:25:48.749Z,9.70
2022-09-25T11:31:22.626Z,10.70
2022-09-25T11:36:31.912Z,9.50
2022-09-25T11:41:43.948Z,12.20
2022-09-25T11:47:11.859Z,11.90
2022-09-25T11:52:37.360Z,10.20
2022-09-25T11:57:56.610Z,11.90
2022-09-25T12:03:20.531Z,10.00
2022-09-25T12:08:26.937Z,12.30
2022-09-25T12:13:41.598Z,11.10
2022-09-25T12:19:03.205Z,12.00
2022-09-25T12:24:17.876Z,15.20
2022-09-25T12:29:26.191Z,11.70
2022-09-25T12:34:34.602Z,10.90
2022-09-25T12:39:44.849Z,11.70
2022-09-25T12:45:02.037Z,10.40
2022-09-25T12:50:17.008Z,9.10
2022-09-25T12:55:26.795Z,10.70
2022-09-25T13:00:33.026Z,12.20
2022-09-25T13:05:50.359Z,11.80
2022-09-25T13:11:02.456Z,13.20
2022-09-25T13:16:05.806Z,11.70
2022-09-25T13:21:26.152Z,12.00
2022-09-25T13:26:30.362Z,10.20
2022-09-25T13:31:37.169Z,12.20
2022-09-25T13:36:53.587Z,12.40
2022-09-25T13:41:57.008Z,12.70
2022-09-25T13:47:22.089Z,10.10
2022-09-25T13:52:36.868Z,15.20
2022-09-25T13:57:58.441Z,12.00
2022-09-25T14:03:03.282Z,12.30
2022-09-25T14:08:15.973Z,11.10
2022-09-25T14:13:25.404Z,11.50
2022-09-25T14:18:44.023Z,11.50
2022-09-25T14:23:52.306Z,11.60
2022-09-25T14:28:57.297Z,13.20
2022-09-25T14:34:41.338Z,11.50
2022-09-25T14:40:02.338Z,14.70
2022-09-25T14:45:34.936Z,15.20
2022-09-25T14:50:45.805Z,17.90
2022-09-25T14:55:53.094Z,12.60
2022-09-25T15:01:02.087Z,13.30
2022-09-25T15:06:05.136Z,13.60
2022-09-25T15:11:16.385Z,14.40
2022-09-25T15:16:44.034Z,12.40
2022-09-25T15:21:47.695Z,16.10
2022-09-25T15:27:03.078Z,13.10
2022-09-25T15:32:06.621Z,11.40
2022-09-25T15:37:29.479Z,14.60
2022-09-25T15:42:33.124Z,15.60
2022-09-25T15:47:35.907Z,14.10
2022-09-25T15:52:39.305Z,13.80
2022-09-25T15:57:42.443Z,20.20
2022-09-25T16:03:17.333Z,16.60
2022-09-25T16:08:36.921Z,18.50
2022-09-25T16:13:43.750Z,16.80
2022-09-25T16:18:47.075Z,13.20
2022-09-25T16:24:07.557Z,15.80
2022-09-25T16:29:11.521Z,21.00
2022-09-25T16:34:39.108Z,17.40
2022-09-25T16:39:43.680Z,15.20
2022-09-25T16:44:47.236Z,19.00
2022-09-25T16:49:50.549Z,18.20
2022-09-25T16:54:57.023Z,19.00
2022-09-25T17:00:00.018Z,16.50
2022-09-25T17:05:11.151Z,17.80
2022-09-25T17:10:16.508Z,21.30
2022-09-25T17:15:27.628Z,20.80
2022-09-25T17:20:31.316Z,18.90
2022-09-25T17:25:45.857Z,25.60
2022-09-25T17:30:48.822Z,18.00
2022-09-25T17:36:04.196Z,18.30
2022-09-25T17:41:34.125Z,23.90
2022-09-25T17:46:37.380Z,22.30
2022-09-25T17:51:40.922Z,21.70
2022-09-25T17:56:45.473Z,22.80
2022-09-25T18:01:48.459Z,22.30
2022-09-25T18:06:52.192Z,21.90
2022-09-25T18:11:55.187Z,25.00
2022-09-25T18:16:58.307Z,18.60
2022-09-25T18:22:21.897Z,19.70
2022-09-25T18:27:27.805Z,23.20
2022-09-25T18:32:31.785Z,22.60
2022-09-25T18:37:35.131Z,26.10
2022-09-25T18:42:38.440Z,20.00
2022-09-25T18:47:42.540Z,22.00
2022-09-25T18:52:45.668Z,25.00
2022-09-25T18:57:48.667Z,20.60
2022-09-25T19:02:51.657Z,21.30
2022-09-25T19:07:54.963Z,28.20
2022-09-25T19:12:57.929Z,22.50
2022-09-25T19:18:00.792Z,21.90
2022-09-25T19:23:03.760Z,21.50
2022-09-25T19:28:07.951Z,25.90
2022-09-25T19:33:10.858Z,21.30
2022-09-25T19:38:13.769Z,20.10
2022-09-25T19:43:16.829Z,21.60
2022-09-25T19:48:20.981Z,23.60
2022-09-25T19:53:23.852Z,22.50
2022-09-25T19:58:26.723Z,23.30
2022-09-25T20:03:29.934Z,24.20
2022-09-25T20:08:33.413Z,26.00
2022-09-25T20:13:36.336Z,25.60
2022-09-25T20:18:39.480Z,25.90
2022-09-25T20:23:42.572Z,24.60
2022-09-25T20:28:46.549Z,27.50
2022-09-25T20:33:49.561Z,30.40
2022-09-25T20:38:54.134Z,30.20
2022-09-25T20:43:58.069Z,28.80
2022-09-25T20:49:02.376Z,26.40
2022-09-25T20:54:07.550Z,28.20
2022-09-25T20:59:11.387Z,28.60
2022-09-25T21:04:18.271Z,29.30
2022-09-25T21:09:24.122Z,26.60
2022-09-25T21:14:28.571Z,26.50
2022-09-25T21:19:31.947Z,25.30
2022-09-25T21:24:35.946Z,26.90
2022-09-25T21:29:39.251Z,24.50
2022-09-25T21:34:42.185Z,23.10
2022-09-25T21:39:45.025Z,25.70
2022-09-25T21:44:48.110Z,27.20
2022-09-25T21:49:51.112Z,25.50
2022-09-25T21:54:54.721Z,25.10
2022-09-25T21:59:57.564Z,26.40
2022-09-25T22:05:02.178Z,24.30
2022-09-25T22:10:07.138Z,28.60
2022-09-25T22:15:10.437Z,28.70
2022-09-25T22:20:13.729Z,27.10
2022-09-25T22:25:16.700Z,31.30
2022-09-25T22:30:19.786Z,24.90
2022-09-25T22:35:22.725Z,29.30
2022-09-25T22:40:25.653Z,28.50
2022-09-25T22:45:29.377Z,27.20
2022-09-25T22:50:32.245Z,24.60
2022-09-25T22:55:35.094Z,29.90
2022-09-25T23:00:42.983Z,25.50
2022-09-25T23:05:47.553Z,25.00
2022-09-25T23:11:06.638Z,26.20
2022-09-25T23:16:12.948Z,27.50
2022-09-25T23:21:16.856Z,23.40
2022-09-25T23:26:20.392Z,25.90
2022-09-25T23:31:27.147Z,26.30
2022-09-25T23:36:32.705Z,25.80
2022-09-25T23:41:39.838Z,24.30
2022-09-25T23:46:46.231Z,21.60
2022-09-25T23:51:51.826Z,24.10
2022-09-25T23:56:57.765Z,26.90
